Etusivu
METAR-TAF:

METAR-TAF

Lentoasemat :

Wink, Texas, Yhdysvallat

Leveyspiiri: 31-46-47N, Pituuspiiri: 103-12-05W, korkeus merenpinnasta: 860 m

Tämänhetkinen sää

Tämä raportti tehtiin 1 tunti ja 8 minuuttia sitten, kello 03.53 UTC
Tuuli 14 kn etelästä
Lämpötila 22°C
Kosteus 41%
Ilmanpaine 1004 hPa
Näkyvyys: 16.1 km
selkeää

METAR: KINK 250353Z AUTO 18014KT 10SM CLR 22/08 A2966 RMK AO2 PK WND 17026/0254 SLP998 T02220078 $

Aika: 00:01 (05:01 UTC)

Sääennuste

Tämä raportti tehtiin 5 tuntia ja 41 minuuttia sitten, kello 23.20 UTC
Ennuste voimassa 25. päivästä klo 00 UTC - 25. päivään klo 24 UTC
Tuuli 14 kn lounaasta puuskistuen 20 kn:hen
Näkyvyys: 10 km
Muutamia pilviä 12000 ft:n korkeudessa
Hajanaisia pilviä 25000 ft:n korkeudessa
From 25. päivästä klo 0200 UTC
Tuuli 12 kn kaakosta
Näkyvyys: 10 km
Muutamia pilviä 12000 ft:n korkeudessa

TAF: KINK 242320Z 2500/2524 23014G20KT P6SM FEW120 SCT250 FM250200 14012KT P6SM FEW120

Säähavainnot ja -ennusteet yli 4000 lentoasemalta (METAR- ja TAF-raportit).

Käytössä olevat sääasemat on merkitty karttaan keltaisilla ja punaisilla pisteillä.

Aseta hiiri pisteen päälle nähdäksesi sääaseman nimen.

Klikkaa sitten nähdäksesi säähavainnot ja -ennusteet.

Kartan vaihtaminen: klikkaa mustalla rastilla varustettuja vihreitä pisteitä, niin voit zoomata sisään; viivalla varustettua vihreää pistettä, niin voit zoomata ulos tai vihreitä nuolia, niin pääset viereisille kartoille.


METAR-TAF: